Time;durP1;ratioP1;P1;durP2;ratioP2;P2;SDS_P1;SDS_P2;PMS_P1;PMS_P2;Temp;Humidity;BMP_temperature;BMP_pressure;BME280_temperature;BME280_humidity;BME280_pressure;Samples;Min_cycle;Max_cycle;Signal;HPM_P1;HPM_P2
2022/08/17 00:01:22;;;;;;;8.02;5.07;;;24.30;80.20;;;;;;5032603;28;20029;-68
2022/08/17 00:03:50;;;;;;;6.32;5.07;;;24.40;80.50;;;;;;5032623;28;20025;-68
2022/08/17 00:06:26;;;;;;;6.97;5.35;;;24.30;80.60;;;;;;5032358;28;20033;-68
2022/08/17 00:09:01;;;;;;;7.53;5.20;;;24.30;80.70;;;;;;5032721;28;20119;-68
2022/08/17 00:11:33;;;;;;;7.00;5.25;;;24.30;80.90;;;;;;5032784;28;20382;-68
2022/08/17 00:14:09;;;;;;;8.52;5.25;;;24.30;81.10;;;;;;5032379;28;20460;-68
2022/08/17 00:16:40;;;;;;;7.10;5.10;;;24.30;81.20;;;;;;5032127;28;20491;-68
2022/08/17 00:19:09;;;;;;;6.80;5.40;;;24.30;81.30;;;;;;5031944;28;20034;-68
2022/08/17 00:21:38;;;;;;;7.13;5.00;;;24.30;81.40;;;;;;5032514;28;20062;-68
2022/08/17 00:24:04;;;;;;;7.55;5.65;;;24.30;81.60;;;;;;5032189;28;20037;-68
2022/08/17 00:26:30;;;;;;;6.63;5.75;;;24.30;81.70;;;;;;5032121;28;20029;-68
2022/08/17 00:28:56;;;;;;;8.05;5.47;;;24.30;81.80;;;;;;5032196;28;20074;-68
2022/08/17 00:31:22;;;;;;;9.57;5.60;;;24.30;81.90;;;;;;5032479;28;20100;-68
2022/08/17 00:33:48;;;;;;;6.10;5.25;;;24.20;81.90;;;;;;5033235;28;20041;-68
2022/08/17 00:36:15;;;;;;;8.85;5.35;;;24.20;82.00;;;;;;5032492;28;20039;-68
2022/08/17 00:38:41;;;;;;;7.70;5.43;;;24.20;82.10;;;;;;5033041;28;20033;-68
2022/08/17 00:41:11;;;;;;;7.68;5.60;;;24.20;82.20;;;;;;5032043;28;20018;-68
2022/08/17 00:43:42;;;;;;;6.30;5.50;;;24.20;82.30;;;;;;5031618;28;20025;-68
2022/08/17 00:46:13;;;;;;;8.40;5.85;;;24.20;82.40;;;;;;5031851;28;20033;-68
2022/08/17 00:48:39;;;;;;;7.40;5.50;;;24.20;82.50;;;;;;5031719;28;20025;-68
2022/08/17 00:51:15;;;;;;;8.15;5.43;;;24.20;82.70;;;;;;5031673;28;20482;-68
2022/08/17 00:53:46;;;;;;;8.57;5.70;;;24.10;82.80;;;;;;5031788;28;20025;-68
2022/08/17 00:56:17;;;;;;;7.80;5.18;;;24.10;83.00;;;;;;5049445;22;20101;-64
2022/08/17 00:58:44;;;;;;;7.03;5.55;;;24.10;83.10;;;;;;5072081;28;20107;-64
2022/08/17 01:01:11;;;;;;;8.38;5.28;;;24.00;83.20;;;;;;5071816;28;20031;-63
2022/08/17 01:03:38;;;;;;;6.50;5.30;;;24.00;83.30;;;;;;5071653;28;20035;-64
2022/08/17 01:06:06;;;;;;;7.68;5.78;;;24.00;83.40;;;;;;5071326;28;20183;-64
2022/08/17 01:08:34;;;;;;;6.80;5.25;;;24.00;83.60;;;;;;5071454;28;20420;-64
2022/08/17 01:11:01;;;;;;;12.52;6.47;;;23.90;83.60;;;;;;5071461;28;20052;-63
2022/08/17 01:13:39;;;;;;;8.90;6.00;;;23.90;83.70;;;;;;5071794;28;20024;-64
2022/08/17 01:16:14;;;;;;;8.60;5.72;;;23.90;83.80;;;;;;5071283;28;20024;-64
2022/08/17 01:18:41;;;;;;;7.25;5.80;;;23.90;84.00;;;;;;5071546;28;20048;-64
2022/08/17 01:21:21;;;;;;;9.13;5.90;;;23.90;84.00;;;;;;5071177;28;20028;-64
2022/08/17 01:23:48;;;;;;;11.85;5.85;;;23.90;84.10;;;;;;5071466;28;20029;-64
2022/08/17 01:26:14;;;;;;;7.70;5.88;;;23.80;84.10;;;;;;5071249;28;20041;-64
2022/08/17 01:28:40;;;;;;;8.68;5.47;;;23.80;84.20;;;;;;5071323;28;20024;-64
2022/08/17 01:31:07;;;;;;;9.50;6.20;;;23.80;84.20;;;;;;5071167;28;20024;-65
2022/08/17 01:33:34;;;;;;;9.27;5.90;;;23.80;84.30;;;;;;5071200;28;20025;-64
2022/08/17 01:36:00;;;;;;;7.57;5.47;;;23.80;84.40;;;;;;5071015;28;20111;-63
2022/08/17 01:38:30;;;;;;;7.50;5.75;;;23.70;84.50;;;;;;5071315;28;20025;-64
2022/08/17 01:41:01;;;;;;;8.25;5.68;;;23.80;84.60;;;;;;5070983;28;20034;-63
2022/08/17 01:43:42;;;;;;;6.97;5.80;;;23.70;84.50;;;;;;5071214;28;20485;-64
2022/08/17 01:46:08;;;;;;;8.52;5.90;;;23.70;84.60;;;;;;5070863;28;20542;-63
2022/08/17 01:48:36;;;;;;;8.10;5.78;;;23.60;84.70;;;;;;5071164;28;20116;-63
2022/08/17 01:51:04;;;;;;;8.07;5.80;;;23.70;84.80;;;;;;5071312;28;20029;-64
2022/08/17 01:53:38;;;;;;;6.78;5.57;;;23.60;84.80;;;;;;5071109;28;20032;-63
2022/08/17 01:56:14;;;;;;;10.38;6.35;;;23.60;85.00;;;;;;5071149;28;20037;-64
2022/08/17 01:58:41;;;;;;;7.57;5.35;;;23.60;85.00;;;;;;5075220;28;20035;-64
2022/08/17 02:01:09;;;;;;;7.95;5.78;;;23.50;85.10;;;;;;5073789;28;20508;-64
2022/08/17 02:03:36;;;;;;;9.00;6.07;;;23.50;85.20;;;;;;5073890;28;20032;-64
2022/08/17 02:06:03;;;;;;;9.90;6.25;;;23.50;85.20;;;;;;5075093;28;20086;-63
2022/08/17 02:08:34;;;;;;;8.98;5.55;;;23.50;85.20;;;;;;5074911;28;20497;-63
2022/08/17 02:11:03;;;;;;;7.53;6.50;;;23.50;85.20;;;;;;5074916;28;20035;-64
2022/08/17 02:13:29;;;;;;;9.40;5.90;;;23.40;85.40;;;;;;5074942;28;20068;-64
2022/08/17 02:15:56;;;;;;;8.38;5.60;;;23.40;85.60;;;;;;5074966;28;20063;-63
2022/08/17 02:18:22;;;;;;;9.27;5.93;;;23.40;85.70;;;;;;5074946;28;20025;-64
2022/08/17 02:20:48;;;;;;;8.15;5.97;;;23.40;85.60;;;;;;5074673;28;20025;-63
2022/08/17 02:23:14;;;;;;;7.60;6.15;;;23.40;85.50;;;;;;5074757;28;20043;-64
2022/08/17 02:25:43;;;;;;;8.98;5.90;;;23.40;85.60;;;;;;5074598;28;20078;-63
2022/08/17 02:28:09;;;;;;;11.00;5.85;;;23.40;85.60;;;;;;5074716;28;20025;-64
2022/08/17 02:30:36;;;;;;;8.75;5.93;;;23.40;85.50;;;;;;5073182;28;20037;-64
2022/08/17 02:33:02;;;;;;;10.07;6.20;;;23.40;85.50;;;;;;5074475;28;20075;-63
2022/08/17 02:35:28;;;;;;;8.20;5.90;;;23.40;85.40;;;;;;5074487;28;20035;-63
2022/08/17 02:37:55;;;;;;;10.18;6.30;;;23.40;85.40;;;;;;5074338;28;20029;-63
2022/08/17 02:40:21;;;;;;;11.15;6.22;;;23.40;85.40;;;;;;5074100;28;20070;-64
2022/08/17 02:42:47;;;;;;;9.35;5.80;;;23.40;85.20;;;;;;5074461;28;20059;-64
2022/08/17 02:45:17;;;;;;;7.57;6.00;;;23.40;85.00;;;;;;5074396;28;20089;-64
2022/08/17 02:47:44;;;;;;;8.63;6.25;;;23.40;85.00;;;;;;5074211;28;20032;-64
2022/08/17 02:50:14;;;;;;;8.32;5.57;;;23.40;85.10;;;;;;5074090;28;20377;-64
2022/08/17 02:52:43;;;;;;;9.32;6.18;;;23.40;85.10;;;;;;5074313;28;20047;-64
2022/08/17 02:55:13;;;;;;;10.25;6.10;;;23.40;85.10;;;;;;5074079;28;20067;-63
2022/08/17 02:57:39;;;;;;;8.15;6.07;;;23.40;85.10;;;;;;5073880;28;20039;-63
2022/08/17 03:00:11;;;;;;;9.32;6.13;;;23.40;85.20;;;;;;5073810;28;20029;-63
2022/08/17 03:02:42;;;;;;;6.97;5.90;;;23.40;85.30;;;;;;5074087;28;20035;-63
2022/08/17 03:05:11;;;;;;;10.45;6.35;;;23.30;85.40;;;;;;5074011;28;20024;-64
2022/08/17 03:07:37;;;;;;;8.45;6.45;;;23.30;85.60;;;;;;5073260;28;20497;-64
2022/08/17 03:10:06;;;;;;;9.07;6.72;;;23.20;85.80;;;;;;5073732;28;20028;-64
2022/08/17 03:12:33;;;;;;;10.40;5.97;;;23.20;85.90;;;;;;5074187;28;20036;-64
2022/08/17 03:15:05;;;;;;;9.55;5.75;;;23.10;86.00;;;;;;5073710;28;20036;-62
2022/08/17 03:17:32;;;;;;;9.02;5.90;;;23.20;86.70;;;;;;5074022;28;20029;-64
2022/08/17 03:19:57;;;;;;;7.40;5.57;;;23.10;86.10;;;;;;5073790;28;20491;-64
2022/08/17 03:22:25;;;;;;;8.30;5.82;;;23.00;86.20;;;;;;5073919;28;20474;-64
2022/08/17 03:24:51;;;;;;;15.80;6.47;;;23.00;86.30;;;;;;5073698;28;20078;-63
2022/08/17 03:27:17;;;;;;;9.32;5.85;;;23.00;86.40;;;;;;5073433;28;20032;-63
2022/08/17 03:29:43;;;;;;;11.10;6.05;;;23.00;86.60;;;;;;5073315;28;20439;-64
2022/08/17 03:32:14;;;;;;;8.52;6.10;;;22.90;86.70;;;;;;5073501;28;20055;-64
2022/08/17 03:34:41;;;;;;;9.48;6.28;;;22.90;86.70;;;;;;5073520;28;20112;-64
2022/08/17 03:37:07;;;;;;;9.82;6.60;;;22.90;87.00;;;;;;5073216;28;20036;-64
2022/08/17 03:39:33;;;;;;;8.25;5.75;;;22.80;87.10;;;;;;5073079;28;20032;-63
2022/08/17 03:42:24;;;;;;;11.05;5.90;;;22.80;87.30;;;;;;5073220;28;20052;-63
2022/08/17 03:44:55;;;;;;;9.48;5.72;;;22.70;87.60;;;;;;5073044;28;20078;-64
2022/08/17 03:58:22;;;;;;;10.70;6.25;;;22.60;88.40;;;;;;5071409;28;20443;-64
2022/08/17 04:00:49;;;;;;;11.35;5.80;;;22.60;88.60;;;;;;5071571;28;20441;-64
2022/08/17 04:03:16;;;;;;;11.20;6.38;;;22.60;88.70;;;;;;5069855;28;20028;-63
2022/08/17 04:05:42;;;;;;;7.90;6.18;;;22.60;88.80;;;;;;5070938;28;20032;-64
2022/08/17 04:08:09;;;;;;;8.98;6.03;;;22.60;88.90;;;;;;5070634;28;20024;-64
2022/08/17 04:10:36;;;;;;;12.32;6.07;;;22.60;89.10;;;;;;5070931;28;20024;-64
2022/08/17 04:13:03;;;;;;;7.43;6.20;;;22.60;89.20;;;;;;5070960;28;20032;-63
2022/08/17 04:15:30;;;;;;;8.80;6.20;;;22.60;89.30;;;;;;5071151;28;20048;-64
2022/08/17 04:17:56;;;;;;;9.05;6.18;;;22.60;89.30;;;;;;5070587;28;20025;-65
2022/08/17 04:20:23;;;;;;;8.30;6.20;;;22.50;89.20;;;;;;5069785;28;20027;-64
2022/08/17 04:22:56;;;;;;;10.48;5.78;;;22.50;89.10;;;;;;5070527;28;20025;-64
2022/08/17 04:25:24;;;;;;;9.02;6.10;;;22.50;89.30;;;;;;5071171;28;20035;-64
2022/08/17 04:27:53;;;;;;;8.85;6.03;;;22.50;89.30;;;;;;5070610;28;20035;-64
2022/08/17 04:30:19;;;;;;;10.88;6.70;;;22.50;89.40;;;;;;5070398;28;20082;-63
2022/08/17 04:33:09;;;;;;;9.30;6.22;;;22.40;89.60;;;;;;5070144;28;20036;-64
2022/08/17 04:35:39;;;;;;;7.15;6.20;;;22.40;89.70;;;;;;5070468;28;20060;-64
2022/08/17 04:38:08;;;;;;;9.00;6.10;;;22.40;89.70;;;;;;5051584;28;20044;-64
2022/08/17 04:43:22;;;;;;;9.48;6.35;;;22.50;89.70;;;;;;5070547;28;20100;-64
2022/08/17 04:46:01;;;;;;;9.48;6.18;;;22.50;89.60;;;;;;5070585;28;20070;-63
2022/08/17 04:48:30;;;;;;;8.93;5.82;;;22.50;89.60;;;;;;5069421;28;20361;-64
2022/08/17 04:50:58;;;;;;;9.65;6.13;;;22.50;89.50;;;;;;5069918;28;20020;-64
2022/08/17 04:53:24;;;;;;;7.57;5.70;;;22.50;89.60;;;;;;5070827;28;20040;-64
2022/08/17 04:55:52;;;;;;;8.27;5.93;;;22.50;89.60;;;;;;5069929;28;20043;-64
2022/08/17 04:58:18;;;;;;;8.48;6.40;;;22.50;89.70;;;;;;5070922;28;20127;-64
2022/08/17 05:00:44;;;;;;;10.55;6.30;;;22.50;89.70;;;;;;5069262;28;20085;-69
2022/08/17 05:03:11;;;;;;;8.20;6.30;;;22.50;90.00;;;;;;5070513;28;20032;-64
2022/08/17 05:05:41;;;;;;;8.95;6.25;;;22.50;90.00;;;;;;5070260;28;20055;-64
2022/08/17 05:08:08;;;;;;;9.90;6.07;;;22.50;90.00;;;;;;5069654;28;20079;-64
2022/08/17 05:10:37;;;;;;;10.82;6.65;;;22.60;90.00;;;;;;5070119;28;20052;-63
2022/08/17 05:13:23;;;;;;;10.20;6.40;;;22.60;90.10;;;;;;5070142;28;20107;-65
2022/08/17 05:15:53;;;;;;;9.73;6.30;;;22.60;90.50;;;;;;5069690;28;20036;-63
2022/08/17 05:18:20;;;;;;;8.68;6.03;;;22.60;90.20;;;;;;5070023;28;20043;-64
2022/08/17 05:20:47;;;;;;;8.82;5.70;;;22.60;90.10;;;;;;5069652;28;20025;-64
2022/08/17 05:23:16;;;;;;;10.82;5.90;;;22.60;90.10;;;;;;5069635;28;20032;-64
2022/08/17 05:25:45;;;;;;;7.03;5.53;;;22.60;90.10;;;;;;5069677;28;20021;-64
2022/08/17 05:28:11;;;;;;;8.18;5.47;;;22.70;90.10;;;;;;5069840;28;20047;-64
2022/08/17 05:30:39;;;;;;;9.52;6.00;;;22.70;90.00;;;;;;5069519;28;20077;-64
2022/08/17 05:33:09;;;;;;;9.50;5.80;;;22.70;90.10;;;;;;5069626;28;20034;-64
2022/08/17 05:35:41;;;;;;;6.97;5.05;;;22.60;90.10;;;;;;5069430;28;20046;-65
2022/08/17 05:38:08;;;;;;;8.27;5.70;;;22.70;90.10;;;;;;5068199;28;20032;-65
2022/08/17 05:40:35;;;;;;;10.05;5.60;;;22.70;90.00;;;;;;5069381;28;20028;-65
2022/08/17 05:43:10;;;;;;;10.63;5.68;;;22.70;89.90;;;;;;5068104;28;20028;-64
2022/08/17 05:46:02;;;;;;;7.80;5.70;;;22.70;89.70;;;;;;5069436;28;20175;-64
2022/08/17 05:48:34;;;;;;;8.18;5.55;;;22.70;89.90;;;;;;5069799;28;20042;-64
2022/08/17 05:51:18;;;;;;;9.95;5.38;;;22.70;89.70;;;;;;5069031;28;20024;-64
2022/08/17 05:54:11;;;;;;;9.82;5.55;;;22.80;89.70;;;;;;5069761;28;20032;-64
2022/08/17 05:56:50;;;;;;;9.07;5.20;;;22.90;89.90;;;;;;5068956;28;20047;-64
2022/08/17 05:59:34;;;;;;;8.25;5.97;;;22.90;90.00;;;;;;5069908;28;20028;-65
2022/08/17 06:02:23;;;;;;;8.93;5.38;;;22.90;90.00;;;;;;5069823;28;20476;-64
2022/08/17 06:05:08;;;;;;;9.20;5.43;;;22.90;90.00;;;;;;5069758;28;20126;-64
2022/08/17 06:07:58;;;;;;;11.18;5.40;;;22.80;90.10;;;;;;5067213;28;20028;-64
2022/08/17 06:10:30;;;;;;;8.15;4.82;;;22.90;90.10;;;;;;5069478;28;20071;-62
2022/08/17 06:13:11;;;;;;;8.40;5.32;;;22.90;90.00;;;;;;5068883;28;20120;-64
2022/08/17 06:15:55;;;;;;;12.18;5.25;;;23.00;89.00;;;;;;5060865;28;20460;-64
2022/08/17 06:18:24;;;;;;;7.20;5.30;;;23.00;88.40;;;;;;5059936;28;20032;-64
2022/08/17 06:20:57;;;;;;;7.40;4.50;;;23.00;87.80;;;;;;5051851;28;20486;-63
2022/08/17 06:23:34;;;;;;;7.60;4.68;;;23.10;87.20;;;;;;5050054;28;20063;-65
2022/08/17 06:26:11;;;;;;;7.30;4.60;;;23.20;86.40;;;;;;5049680;28;20033;-64
2022/08/17 06:28:51;;;;;;;8.00;4.50;;;23.20;85.90;;;;;;5049735;28;20025;-63
2022/08/17 06:31:28;;;;;;;10.30;4.60;;;23.30;85.50;;;;;;5049991;28;20037;-64
2022/08/17 06:33:59;;;;;;;10.13;4.60;;;23.30;85.40;;;;;;5049800;28;20028;-64
2022/08/17 06:36:41;;;;;;;8.45;4.90;;;23.40;85.00;;;;;;5047813;28;20087;-64
2022/08/17 06:39:16;;;;;;;10.75;4.45;;;23.40;84.70;;;;;;5049612;28;20029;-63
2022/08/17 06:42:00;;;;;;;10.80;4.50;;;23.50;85.70;;;;;;5049454;28;20025;-64
2022/08/17 06:44:43;;;;;;;10.88;4.47;;;23.50;85.10;;;;;;5053854;28;20033;-63
2022/08/17 06:47:18;;;;;;;7.18;4.13;;;23.60;84.50;;;;;;5053432;28;20106;-64
2022/08/17 06:49:59;;;;;;;8.30;4.80;;;23.60;84.40;;;;;;5052363;28;20036;-65
2022/08/17 06:52:33;;;;;;;9.23;4.20;;;23.60;84.10;;;;;;5052606;28;20033;-64
2022/08/17 06:55:05;;;;;;;11.77;4.70;;;23.70;83.80;;;;;;5053163;28;20466;-64
2022/08/17 06:57:35;;;;;;;8.50;4.30;;;23.70;84.20;;;;;;5052817;28;20108;-64
2022/08/17 07:00:06;;;;;;;9.02;4.68;;;23.80;84.10;;;;;;5052971;28;20035;-65
2022/08/17 07:02:35;;;;;;;9.45;4.40;;;23.80;84.30;;;;;;5053013;28;20029;-64
2022/08/17 07:05:03;;;;;;;6.68;4.25;;;23.80;84.10;;;;;;5052923;28;20397;-64
2022/08/17 07:10:15;;;;;;;6.78;5.10;;;23.90;84.10;;;;;;5053023;28;20286;-64
2022/08/17 07:12:43;;;;;;;8.18;4.80;;;23.90;84.30;;;;;;5052948;28;20056;-64
2022/08/17 07:15:18;;;;;;;6.55;4.50;;;23.90;84.30;;;;;;5061801;28;20067;-64
2022/08/17 07:17:48;;;;;;;8.10;4.63;;;24.00;84.80;;;;;;5072303;28;20481;-62
2022/08/17 07:20:19;;;;;;;8.15;4.70;;;24.00;84.90;;;;;;5072616;28;20564;-63
2022/08/17 07:23:36;;;;;;;8.80;5.13;;;24.00;85.20;;;;;;5072098;28;20082;-63
2022/08/17 07:26:07;;;;;;;8.23;5.25;;;24.00;85.60;;;;;;5071962;28;20036;-63
2022/08/17 07:28:34;;;;;;;10.05;6.10;;;24.00;85.30;;;;;;5072443;28;20024;-63
2022/08/17 07:31:03;;;;;;;9.32;5.70;;;24.00;85.40;;;;;;5072190;28;20024;-64
2022/08/17 07:33:31;;;;;;;9.88;6.13;;;24.10;85.80;;;;;;5072076;28;20031;-64
2022/08/17 07:35:58;;;;;;;11.73;6.20;;;24.10;85.90;;;;;;5071531;28;20028;-64
2022/08/17 07:38:29;;;;;;;11.10;6.43;;;24.10;86.00;;;;;;5071917;28;20484;-64
2022/08/17 07:41:05;;;;;;;11.30;7.15;;;24.20;86.40;;;;;;5071559;28;20025;-64
2022/08/17 07:43:33;;;;;;;11.25;7.70;;;24.20;86.50;;;;;;5071797;28;20043;-64
2022/08/17 07:49:20;;;;;;;11.82;7.88;;;24.20;87.00;;;;;;5071939;28;20101;-64
2022/08/17 07:51:46;;;;;;;11.23;7.85;;;24.20;87.30;;;;;;5070795;28;20032;-63
2022/08/17 07:54:14;;;;;;;14.07;8.82;;;24.20;87.30;;;;;;5070181;28;20029;-65
2022/08/17 07:56:48;;;;;;;16.33;9.18;;;24.20;87.20;;;;;;5070854;28;20162;-63
2022/08/17 07:59:18;;;;;;;9.27;7.90;;;24.20;87.50;;;;;;5071374;28;20035;-64
2022/08/17 08:02:02;;;;;;;12.02;9.02;;;24.20;87.70;;;;;;5071292;28;20096;-63
2022/08/17 08:05:03;;;;;;;13.02;9.30;;;24.20;87.90;;;;;;5070284;28;20024;-64
2022/08/17 08:07:37;;;;;;;13.48;8.63;;;24.20;88.20;;;;;;5036272;28;20037;-63
2022/08/17 08:10:35;;;;;;;13.15;9.80;;;24.20;88.10;;;;;;5067294;28;20035;-63
2022/08/17 08:13:19;;;;;;;13.82;9.07;;;24.30;88.10;;;;;;5091915;28;20036;-63
2022/08/17 08:15:48;;;;;;;9.77;8.27;;;24.30;88.20;;;;;;5091368;28;20042;-64
2022/08/17 08:18:35;;;;;;;13.55;8.98;;;24.30;88.40;;;;;;5091846;28;20024;-64
2022/08/17 08:21:09;;;;;;;15.73;9.77;;;24.30;88.50;;;;;;5089864;28;20431;-64
2022/08/17 08:23:46;;;;;;;11.98;8.55;;;24.30;88.40;;;;;;5092217;28;20111;-65
2022/08/17 08:26:25;;;;;;;14.65;9.15;;;24.30;88.50;;;;;;5091511;28;20032;-64
2022/08/17 08:29:07;;;;;;;10.88;8.32;;;24.30;88.90;;;;;;5092144;28;20131;-65
2022/08/17 08:32:09;;;;;;;17.92;8.98;;;24.30;88.90;;;;;;5079338;28;20048;-64
2022/08/17 08:34:54;;;;;;;16.20;9.05;;;24.30;89.00;;;;;;5071421;28;20031;-64
2022/08/17 08:37:38;;;;;;;10.85;8.63;;;24.30;89.00;;;;;;5070397;28;20078;-64
2022/08/17 08:40:31;;;;;;;14.90;8.68;;;24.30;89.00;;;;;;5070759;28;20044;-63
2022/08/17 08:43:10;;;;;;;11.65;9.90;;;24.30;89.10;;;;;;5071295;28;20485;-64
2022/08/17 08:46:07;;;;;;;14.35;10.35;;;24.40;88.80;;;;;;5070727;28;20396;-63
2022/08/17 08:48:33;;;;;;;14.05;9.85;;;24.40;88.60;;;;;;5070856;28;20028;-64
2022/08/17 08:51:10;;;;;;;16.02;11.40;;;24.50;88.50;;;;;;5070339;28;20017;-64
2022/08/17 08:53:48;;;;;;;16.90;11.50;;;24.50;87.90;;;;;;5071423;28;20062;-64
2022/08/17 08:56:33;;;;;;;12.30;10.05;;;24.50;87.40;;;;;;5071019;28;20404;-63
2022/08/17 08:59:37;;;;;;;14.60;11.40;;;24.50;87.50;;;;;;5071445;28;20048;-64
2022/08/17 09:02:17;;;;;;;13.80;9.63;;;24.60;87.40;;;;;;5070850;28;20126;-64
2022/08/17 09:04:52;;;;;;;13.43;10.55;;;24.60;87.00;;;;;;5069245;28;20036;-64
2022/08/17 09:07:40;;;;;;;13.30;10.02;;;24.60;87.10;;;;;;5070008;28;20066;-63
2022/08/17 09:10:05;;;;;;;12.43;9.82;;;24.60;87.30;;;;;;5070493;28;20111;-64
2022/08/17 09:12:59;;;;;;;14.48;9.45;;;24.50;87.60;;;;;;5070601;28;20111;-64
2022/08/17 09:15:32;;;;;;;13.80;9.93;;;24.50;88.00;;;;;;5070597;28;20539;-64
2022/08/17 09:18:07;;;;;;;17.08;11.05;;;24.50;88.70;;;;;;5068853;28;20039;-63
2022/08/17 09:20:41;;;;;;;14.43;11.15;;;24.50;88.30;;;;;;5070563;28;20064;-64
2022/08/17 09:23:21;;;;;;;20.20;13.20;;;24.50;88.10;;;;;;5070150;28;20040;-63
2022/08/17 09:26:00;;;;;;;17.83;12.13;;;24.50;88.10;;;;;;5070724;28;20056;-64
2022/08/17 09:28:36;;;;;;;21.98;14.20;;;24.50;88.10;;;;;;5070726;28;20492;-63
2022/08/17 09:31:14;;;;;;;17.90;12.25;;;24.50;87.60;;;;;;5070119;28;20036;-64
2022/08/17 09:33:45;;;;;;;19.33;14.20;;;24.50;87.60;;;;;;5070472;28;20028;-64
2022/08/17 09:36:20;;;;;;;20.63;13.52;;;24.50;87.30;;;;;;5069257;28;20203;-64
2022/08/17 09:39:01;;;;;;;16.73;13.20;;;24.50;87.30;;;;;;5070121;28;20035;-63
2022/08/17 09:41:44;;;;;;;14.82;13.00;;;24.50;87.50;;;;;;5069805;28;20542;-63
2022/08/17 09:44:15;;;;;;;20.65;15.63;;;24.50;87.60;;;;;;5070160;28;20035;-64
2022/08/17 09:47:17;;;;;;;14.55;12.02;;;24.50;87.60;;;;;;5069851;28;20032;-64
2022/08/17 09:49:48;;;;;;;17.38;13.30;;;24.50;87.80;;;;;;5069688;28;20119;-63
2022/08/17 09:52:27;;;;;;;20.02;14.02;;;24.50;87.60;;;;;;5069417;28;20481;-64
2022/08/17 09:54:55;;;;;;;19.10;13.00;;;24.50;89.80;;;;;;5070004;28;20384;-64
2022/08/17 09:57:41;;;;;;;18.40;13.80;;;24.50;90.10;;;;;;5069242;28;20047;-64
2022/08/17 10:00:17;;;;;;;17.75;14.50;;;24.50;89.60;;;;;;5068833;28;20024;-64
2022/08/17 10:03:16;;;;;;;19.67;15.40;;;24.50;89.50;;;;;;5069228;28;20031;-65
2022/08/17 10:05:55;;;;;;;19.13;15.32;;;24.40;89.30;;;;;;5068281;28;20157;-65
2022/08/17 10:08:42;;;;;;;23.60;17.50;;;24.40;89.60;;;;;;5069587;28;20044;-66
2022/08/17 10:14:38;;;;;;;23.98;17.67;;;24.30;89.50;;;;;;5027151;28;20519;-66
2022/08/17 10:17:11;;;;;;;25.00;20.45;;;24.30;89.70;;;;;;5070313;28;20115;-65
2022/08/17 10:20:05;;;;;;;28.17;21.08;;;24.30;90.00;;;;;;5095115;22;20044;-70
2022/08/17 10:28:28;;;;;;;23.52;17.90;;;24.20;90.20;;;;;;5094632;28;20028;-70
2022/08/17 10:30:57;;;;;;;25.10;18.13;;;24.20;90.30;;;;;;5094392;28;20115;-70
2022/08/17 10:33:31;;;;;;;21.95;16.70;;;24.10;90.30;;;;;;5094178;28;20085;-70
2022/08/17 10:36:13;;;;;;;19.20;16.35;;;24.10;90.50;;;;;;5092472;28;20157;-71
2022/08/17 10:38:39;;;;;;;25.60;19.88;;;24.10;90.50;;;;;;5094589;28;20035;-71
2022/08/17 10:41:30;;;;;;;28.10;22.05;;;24.10;90.40;;;;;;5092851;28;20028;-71
2022/08/17 10:44:22;;;;;;;23.45;19.38;;;24.00;90.30;;;;;;5094347;28;20028;-70
2022/08/17 10:47:05;;;;;;;25.98;20.42;;;24.00;90.40;;;;;;5093907;28;20131;-70
2022/08/17 10:49:46;;;;;;;26.27;20.00;;;24.00;90.60;;;;;;5093889;28;20039;-70
2022/08/17 10:52:28;;;;;;;26.58;21.92;;;24.00;90.70;;;;;;5093238;28;20043;-70
2022/08/17 10:54:57;;;;;;;30.75;21.30;;;24.00;90.70;;;;;;5093463;28;20028;-70
2022/08/17 10:57:39;;;;;;;27.05;20.83;;;24.00;90.90;;;;;;5093507;28;20024;-70
2022/08/17 11:00:34;;;;;;;23.50;21.00;;;23.90;90.80;;;;;;5093890;28;20048;-70
2022/08/17 11:03:01;;;;;;;25.90;21.30;;;23.90;91.00;;;;;;5093537;28;20028;-70
2022/08/17 11:05:49;;;;;;;23.20;19.60;;;23.90;91.20;;;;;;5092697;28;20032;-70
2022/08/17 11:08:43;;;;;;;27.92;21.65;;;23.90;91.40;;;;;;5093179;28;20032;-70
2022/08/17 11:11:34;;;;;;;26.48;20.80;;;23.80;91.60;;;;;;5093232;28;20035;-70
2022/08/17 11:14:20;;;;;;;25.83;21.35;;;23.80;91.80;;;;;;5092184;28;20090;-71
2022/08/17 11:17:00;;;;;;;34.72;21.25;;;23.80;92.00;;;;;;5092652;28;20392;-70
2022/08/17 11:19:35;;;;;;;24.83;20.17;;;23.70;92.10;;;;;;5090948;28;20040;-70
2022/08/17 11:22:19;;;;;;;24.88;22.17;;;23.70;92.40;;;;;;5092064;28;20016;-70
2022/08/17 11:24:50;;;;;;;37.63;28.15;;;23.70;92.70;;;;;;5092831;28;20035;-70
2022/08/17 11:27:31;;;;;;;29.23;23.40;;;23.70;92.80;;;;;;5092213;28;20028;-70
2022/08/17 11:30:34;;;;;;;31.45;27.70;;;23.70;92.90;;;;;;5091974;28;20113;-70
2022/08/17 11:33:35;;;;;;;29.77;24.63;;;23.60;93.10;;;;;;5090719;28;20020;-70
2022/08/17 11:36:28;;;;;;;31.23;25.55;;;23.60;93.20;;;;;;5091766;28;20049;-70
2022/08/17 11:39:18;;;;;;;35.08;27.70;;;23.50;93.60;;;;;;5087287;28;20040;-71
2022/08/17 11:41:57;;;;;;;36.88;29.33;;;23.50;93.60;;;;;;5092061;28;20111;-71
2022/08/17 11:44:25;;;;;;;41.17;30.02;;;23.50;93.80;;;;;;5092377;28;20427;-70
2022/08/17 11:52:49;;;;;;;39.85;34.03;;;23.50;94.30;;;;;;5090313;28;20495;-71
2022/08/17 11:55:35;;;;;;;38.90;32.83;;;23.60;94.50;;;;;;5092129;28;20450;-70
2022/08/17 11:58:16;;;;;;;36.05;30.27;;;23.60;94.30;;;;;;5092126;28;20020;-70
2022/08/17 12:00:45;;;;;;;45.05;37.97;;;23.70;94.30;;;;;;5090343;28;20028;-70
2022/08/17 12:03:32;;;;;;;40.05;35.00;;;23.70;94.00;;;;;;5092817;28;20502;-71
2022/08/17 12:06:15;;;;;;;37.42;31.55;;;23.80;94.10;;;;;;5092522;28;20032;-70
2022/08/17 12:08:46;;;;;;;46.75;36.15;;;23.80;94.10;;;;;;5093522;28;20024;-70
2022/08/17 12:12:00;;;;;;;35.38;30.70;;;23.80;94.20;;;;;;5090395;28;20043;-70
2022/08/17 12:14:29;;;;;;;38.50;31.25;;;23.90;93.90;;;;;;5081162;28;20073;-71
2022/08/17 12:17:03;;;;;;;34.83;29.20;;;24.00;93.40;;;;;;5091367;28;20040;-71
2022/08/17 12:19:32;;;;;;;35.30;31.10;;;24.00;93.00;;;;;;5091248;28;20258;-71
2022/08/17 12:22:36;;;;;;;35.65;29.65;;;24.00;92.70;;;;;;5091281;28;20110;-71
2022/08/17 12:25:31;;;;;;;33.83;26.80;;;24.10;92.80;;;;;;5091174;28;20035;-71
2022/08/17 12:27:58;;;;;;;36.08;31.92;;;24.10;92.80;;;;;;5052660;28;20032;-74
2022/08/17 12:30:24;;;;;;;36.10;29.95;;;24.20;92.90;;;;;;5091097;28;20469;-75
2022/08/17 12:32:50;;;;;;;37.92;32.05;;;24.20;92.70;;;;;;5091159;28;20103;-76
2022/08/17 12:35:22;;;;;;;34.58;27.38;;;24.20;92.70;;;;;;5091723;28;20126;-76
2022/08/17 12:37:49;;;;;;;34.63;29.90;;;24.30;92.90;;;;;;5089619;28;20142;-76
2022/08/17 12:40:22;;;;;;;40.75;34.67;;;24.30;93.90;;;;;;5090493;28;20065;-73
2022/08/17 12:42:56;;;;;;;39.58;34.85;;;24.20;94.30;;;;;;5091566;28;20051;-74
2022/08/17 12:45:28;;;;;;;42.03;33.80;;;24.20;94.00;;;;;;5091442;28;20066;-74
2022/08/17 12:48:06;;;;;;;45.17;38.80;;;24.10;94.60;;;;;;5091080;28;20033;-71
2022/08/17 12:50:43;;;;;;;44.75;36.22;;;23.90;95.90;;;;;;5089690;28;20089;-70
2022/08/17 12:53:19;;;;;;;46.67;39.95;;;23.80;95.60;;;;;;5090399;28;20398;-70
2022/08/17 12:55:46;;;;;;;42.95;38.25;;;23.50;97.00;;;;;;5090250;28;20055;-70
2022/08/17 12:58:18;;;;;;;44.55;37.08;;;23.40;97.20;;;;;;5090411;28;20020;-69
2022/08/17 13:00:49;;;;;;;48.35;40.78;;;23.20;97.60;;;;;;5090505;28;20028;-70
2022/08/17 13:03:19;;;;;;;46.78;41.15;;;23.20;97.50;;;;;;5083920;28;20556;-70
2022/08/17 13:05:51;;;;;;;51.05;45.38;;;23.10;97.60;;;;;;5078285;28;20036;-69
2022/08/17 13:08:22;;;;;;;55.47;45.35;;;23.10;98.50;;;;;;5070235;28;20481;-69
2022/08/17 13:10:57;;;;;;;52.45;43.85;;;23.10;98.50;;;;;;5070259;28;20664;-68
2022/08/17 13:13:29;;;;;;;51.38;45.00;;;23.10;98.20;;;;;;5070218;28;20024;-69
2022/08/17 13:16:01;;;;;;;47.13;41.50;;;23.00;98.70;;;;;;5069833;28;20028;-68
2022/08/17 13:18:38;;;;;;;52.72;46.10;;;23.00;99.30;;;;;;5070235;28;20032;-68
2022/08/17 13:21:17;;;;;;;54.88;43.20;;;23.00;98.80;;;;;;5069697;28;20501;-67
2022/08/17 13:24:20;;;;;;;48.83;38.95;;;23.00;98.20;;;;;;5070332;28;20053;-68
2022/08/17 13:26:51;;;;;;;45.58;38.28;;;23.00;98.40;;;;;;5047974;28;20032;-69
2022/08/17 13:29:22;;;;;;;47.63;38.92;;;23.00;99.80;;;;;;5069905;28;20032;-68
2022/08/17 13:31:51;;;;;;;42.47;37.15;;;23.00;98.10;;;;;;5069814;28;20036;-68
2022/08/17 13:34:23;;;;;;;;;;;23.10;98.00;;;;;;5070583;28;20054;-69
2022/08/17 13:36:51;;;;;;;40.47;34.53;;;23.10;98.70;;;;;;5068886;28;19921;-69
2022/08/17 13:39:20;;;;;;;42.63;38.03;;;23.10;99.90;;;;;;5069766;28;20051;-70
2022/08/17 13:41:48;;;;;;;48.15;39.67;;;23.10;99.50;;;;;;5069607;28;20048;-67
2022/08/17 13:44:36;;;;;;;47.58;39.30;;;23.20;98.50;;;;;;5068530;28;20119;-69
2022/08/17 13:47:04;;;;;;;46.63;39.80;;;23.30;98.50;;;;;;5069232;28;20111;-68
2022/08/17 13:49:35;;;;;;;;;;;23.30;98.40;;;;;;5070082;28;20032;-68